Time;durP1;ratioP1;P1;durP2;ratioP2;P2;SDS_P1;SDS_P2;PMS_P1;PMS_P2;Temp;Humidity;BMP_temperature;BMP_pressure;BME280_temperature;BME280_humidity;BME280_pressure;Samples;Min_cycle;Max_cycle;Signal;HPM_P1;HPM_P2
2021/07/05 00:01:03;;;;;;;2.65;0.80;;;16.40;79.20;;;;;;5079460;28;20025;-74
2021/07/05 00:03:28;;;;;;;0.80;0.80;;;16.30;80.20;;;;;;5081963;28;20024;-74
2021/07/05 00:05:54;;;;;;;0.98;0.80;;;16.40;79.30;;;;;;5080197;28;20373;-73
2021/07/05 00:08:19;;;;;;;1.00;0.82;;;16.40;79.20;;;;;;5076758;28;20028;-73
2021/07/05 00:10:45;;;;;;;1.20;0.93;;;16.30;79.20;;;;;;5074642;28;20028;-73
2021/07/05 00:13:11;;;;;;;0.60;0.60;;;16.40;79.10;;;;;;5075906;28;20032;-73
2021/07/05 00:15:36;;;;;;;1.25;0.68;;;16.40;79.10;;;;;;5075618;28;20064;-73
2021/07/05 00:18:05;;;;;;;1.33;1.00;;;16.40;78.90;;;;;;5075598;28;20448;-74
2021/07/05 00:20:34;;;;;;;0.93;0.73;;;16.40;78.80;;;;;;5075577;28;20488;-75
2021/07/05 00:23:00;;;;;;;1.20;0.63;;;16.40;78.90;;;;;;5075551;28;20046;-74
2021/07/05 00:25:26;;;;;;;1.80;0.60;;;16.40;79.00;;;;;;5075412;28;20411;-74
2021/07/05 00:27:52;;;;;;;1.15;0.80;;;16.30;79.00;;;;;;5075341;28;20032;-74
2021/07/05 00:30:19;;;;;;;1.83;0.52;;;16.40;79.30;;;;;;5075332;28;20029;-73
2021/07/05 00:32:45;;;;;;;1.13;0.65;;;16.30;79.60;;;;;;5075306;28;20025;-74
2021/07/05 00:35:12;;;;;;;2.85;0.73;;;16.30;79.80;;;;;;5075563;28;20024;-73
2021/07/05 00:37:38;;;;;;;1.45;0.80;;;16.20;79.90;;;;;;5075336;28;20099;-73
2021/07/05 00:40:06;;;;;;;4.57;0.90;;;16.20;80.20;;;;;;5075199;28;20016;-74
2021/07/05 00:42:31;;;;;;;1.02;0.60;;;16.10;80.90;;;;;;5074826;28;20485;-74
2021/07/05 00:44:57;;;;;;;2.30;0.90;;;16.00;81.10;;;;;;5075324;28;20099;-74
2021/07/05 00:47:23;;;;;;;3.60;0.90;;;15.90;82.10;;;;;;5074834;28;20048;-74
2021/07/05 00:49:48;;;;;;;1.10;1.00;;;15.90;82.40;;;;;;5074919;28;20024;-74
2021/07/05 00:52:14;;;;;;;1.38;1.02;;;15.90;82.40;;;;;;5074999;28;20431;-74
2021/07/05 00:54:40;;;;;;;1.58;0.82;;;15.90;82.40;;;;;;5074958;28;20028;-74
2021/07/05 00:57:19;;;;;;;2.90;0.90;;;15.90;82.30;;;;;;5074922;28;20089;-73
2021/07/05 00:59:49;;;;;;;1.45;0.80;;;15.80;81.70;;;;;;5074840;28;20013;-75
2021/07/05 01:02:16;;;;;;;3.53;0.65;;;15.70;82.20;;;;;;5074807;28;20073;-75
2021/07/05 01:04:42;;;;;;;1.30;0.75;;;15.70;82.20;;;;;;5074829;28;20017;-76
2021/07/05 01:07:08;;;;;;;2.45;0.90;;;15.80;82.30;;;;;;5074677;28;20021;-75
2021/07/05 01:09:33;;;;;;;1.85;0.90;;;15.80;82.30;;;;;;5074466;28;20029;-76
2021/07/05 01:11:59;;;;;;;2.28;1.00;;;15.80;82.20;;;;;;5074540;28;20385;-76
2021/07/05 01:14:25;;;;;;;0.80;0.65;;;15.70;82.20;;;;;;5074609;28;20028;-76
2021/07/05 01:16:50;;;;;;;0.70;0.70;;;15.70;82.20;;;;;;5074442;28;20029;-76
2021/07/05 01:19:16;;;;;;;1.15;0.90;;;15.80;82.30;;;;;;5074280;28;20431;-75
2021/07/05 01:21:41;;;;;;;1.02;0.80;;;15.80;82.40;;;;;;5074431;28;20025;-76
2021/07/05 01:24:07;;;;;;;1.48;0.80;;;15.70;82.10;;;;;;5074416;28;20028;-75
2021/07/05 01:26:33;;;;;;;6.05;1.10;;;15.70;82.80;;;;;;5074488;28;20452;-75
2021/07/05 01:28:59;;;;;;;0.93;0.60;;;15.70;82.00;;;;;;5074321;28;20032;-75
2021/07/05 01:31:24;;;;;;;1.13;0.65;;;15.80;81.50;;;;;;5074308;28;20013;-76
2021/07/05 01:33:52;;;;;;;3.47;0.80;;;15.80;81.40;;;;;;5074329;28;20454;-76
2021/07/05 01:36:18;;;;;;;0.68;0.68;;;15.80;81.60;;;;;;5074163;28;20059;-75
2021/07/05 01:38:43;;;;;;;3.50;1.02;;;15.80;81.60;;;;;;5074169;28;20020;-76
2021/07/05 01:41:10;;;;;;;0.95;0.90;;;15.90;81.90;;;;;;5073910;28;20366;-74
2021/07/05 01:43:36;;;;;;;1.02;0.90;;;15.90;81.80;;;;;;5073904;28;20064;-75
2021/07/05 01:46:02;;;;;;;1.88;0.77;;;15.90;81.90;;;;;;5074231;28;20413;-76
2021/07/05 01:48:28;;;;;;;4.10;0.70;;;15.90;81.60;;;;;;5073586;28;20044;-74
2021/07/05 01:50:54;;;;;;;2.17;0.80;;;15.90;81.30;;;;;;5073883;28;20021;-74
2021/07/05 01:53:21;;;;;;;1.80;0.80;;;15.90;81.20;;;;;;5073103;28;20054;-74
2021/07/05 01:55:47;;;;;;;1.00;0.73;;;15.90;81.70;;;;;;5073898;28;20126;-75
2021/07/05 01:58:13;;;;;;;2.63;1.10;;;15.80;81.80;;;;;;5073731;28;20035;-75
2021/07/05 02:00:43;;;;;;;2.58;0.90;;;15.80;82.00;;;;;;5073575;28;20461;-76
2021/07/05 02:03:09;;;;;;;1.85;0.75;;;15.80;81.90;;;;;;5073586;28;20482;-76
2021/07/05 02:05:35;;;;;;;2.17;1.10;;;15.80;81.90;;;;;;5073617;28;20029;-75
2021/07/05 02:08:02;;;;;;;1.50;0.95;;;15.80;81.50;;;;;;5073489;28;20104;-75
2021/07/05 02:10:32;;;;;;;1.88;0.90;;;15.80;81.60;;;;;;5073524;28;20031;-76
2021/07/05 02:13:01;;;;;;;1.48;1.10;;;15.80;81.40;;;;;;5073607;28;20017;-75
2021/07/05 02:15:26;;;;;;;1.88;0.93;;;15.90;81.80;;;;;;5073514;28;20028;-75
2021/07/05 02:17:52;;;;;;;1.00;0.75;;;15.80;81.70;;;;;;5073466;28;20020;-75
2021/07/05 02:20:21;;;;;;;1.33;0.93;;;15.80;82.00;;;;;;5073298;28;20530;-75
2021/07/05 02:22:50;;;;;;;1.35;0.70;;;15.80;82.00;;;;;;5073505;28;20099;-75
2021/07/05 02:25:16;;;;;;;1.65;1.00;;;15.70;82.20;;;;;;5073426;28;20438;-75
2021/07/05 02:27:43;;;;;;;1.88;0.82;;;15.70;82.30;;;;;;5073192;28;20043;-75
2021/07/05 02:30:17;;;;;;;3.20;0.82;;;15.70;82.30;;;;;;5075232;28;20026;-75
2021/07/05 02:32:46;;;;;;;1.17;0.85;;;15.60;82.50;;;;;;5078200;28;20028;-75
2021/07/05 02:35:13;;;;;;;2.67;1.10;;;15.60;82.60;;;;;;5075795;28;20369;-74
2021/07/05 02:37:42;;;;;;;1.08;0.90;;;15.60;82.70;;;;;;5082153;28;20050;-75
2021/07/05 02:40:09;;;;;;;3.38;1.00;;;15.60;82.90;;;;;;5074971;28;20110;-74
2021/07/05 02:42:35;;;;;;;3.88;1.00;;;15.60;82.80;;;;;;5076472;28;20024;-75
2021/07/05 02:45:06;;;;;;;1.35;0.75;;;15.70;82.50;;;;;;5072188;28;20024;-74
2021/07/05 02:47:32;;;;;;;2.90;0.90;;;15.70;82.80;;;;;;5072608;28;20047;-73
2021/07/05 02:49:58;;;;;;;1.90;1.40;;;15.70;82.60;;;;;;5072967;28;20033;-73
2021/07/05 02:52:23;;;;;;;3.28;0.98;;;15.60;82.50;;;;;;5072856;28;20052;-73
2021/07/05 02:54:49;;;;;;;2.42;0.85;;;15.70;82.70;;;;;;5072986;28;20513;-73
2021/07/05 02:57:29;;;;;;;1.33;0.90;;;15.70;82.60;;;;;;5073044;28;20062;-73
2021/07/05 03:00:01;;;;;;;4.90;1.15;;;15.70;82.70;;;;;;5072935;28;20111;-73
2021/07/05 03:02:30;;;;;;;6.63;1.00;;;15.70;83.00;;;;;;5072761;28;20517;-73
2021/07/05 03:04:57;;;;;;;2.47;0.90;;;15.80;83.80;;;;;;5074746;28;20056;-72
2021/07/05 03:07:23;;;;;;;1.80;1.15;;;15.80;83.40;;;;;;5076933;28;20017;-73
2021/07/05 03:09:48;;;;;;;1.27;1.00;;;15.80;83.80;;;;;;5076831;28;20536;-73
2021/07/05 03:12:14;;;;;;;2.63;0.90;;;15.80;84.10;;;;;;5076717;28;20528;-73
2021/07/05 03:14:39;;;;;;;3.20;1.20;;;15.90;84.20;;;;;;5076682;28;20094;-72
2021/07/05 03:17:05;;;;;;;2.25;1.20;;;15.90;84.20;;;;;;5076768;28;20063;-72
2021/07/05 03:19:30;;;;;;;4.10;1.10;;;15.90;84.40;;;;;;5076695;28;20025;-73
2021/07/05 03:21:56;;;;;;;2.10;1.25;;;15.90;84.90;;;;;;5076702;28;20032;-73
2021/07/05 03:24:22;;;;;;;1.65;1.10;;;15.80;84.70;;;;;;5076444;28;20025;-73
2021/07/05 03:26:48;;;;;;;1.73;1.15;;;15.90;84.80;;;;;;5076508;28;20020;-72
2021/07/05 03:29:13;;;;;;;0.80;0.80;;;15.90;85.10;;;;;;5076413;28;20041;-73
2021/07/05 03:31:39;;;;;;;2.15;0.88;;;15.90;85.20;;;;;;5076543;28;20035;-72
2021/07/05 03:34:04;;;;;;;1.98;0.90;;;15.90;85.10;;;;;;5076390;28;20024;-73
2021/07/05 03:36:30;;;;;;;1.70;0.90;;;15.90;85.20;;;;;;5076243;28;20024;-73
2021/07/05 03:38:56;;;;;;;1.38;0.90;;;15.90;85.50;;;;;;5076147;28;20036;-72
2021/07/05 03:41:21;;;;;;;4.50;0.80;;;15.90;85.70;;;;;;5076160;28;20025;-73
2021/07/05 03:43:47;;;;;;;2.22;0.90;;;15.80;85.40;;;;;;5076133;28;20078;-72
2021/07/05 03:46:12;;;;;;;2.33;0.90;;;15.80;85.80;;;;;;5076223;28;20477;-72
2021/07/05 03:48:38;;;;;;;1.27;1.10;;;15.70;85.50;;;;;;5074511;28;20500;-73
2021/07/05 03:51:03;;;;;;;2.55;1.10;;;15.80;86.00;;;;;;5076061;28;20108;-73
2021/07/05 03:53:29;;;;;;;2.03;1.10;;;15.80;86.00;;;;;;5076035;28;20066;-73
2021/07/05 03:55:54;;;;;;;1.63;1.13;;;15.80;85.90;;;;;;5075934;28;20028;-73
2021/07/05 03:58:20;;;;;;;2.60;1.10;;;15.80;85.80;;;;;;5075826;28;20103;-72
2021/07/05 04:00:46;;;;;;;0.80;0.80;;;15.80;85.90;;;;;;5075836;28;20024;-73
2021/07/05 04:03:12;;;;;;;2.00;0.95;;;15.80;85.60;;;;;;5075893;28;20028;-73
2021/07/05 04:05:38;;;;;;;3.72;1.00;;;15.80;85.30;;;;;;5075820;28;20082;-73
2021/07/05 04:08:05;;;;;;;2.45;1.10;;;15.80;85.50;;;;;;5075696;28;20056;-73
2021/07/05 04:10:32;;;;;;;1.70;1.08;;;15.80;85.70;;;;;;5075725;28;20142;-73
2021/07/05 04:12:58;;;;;;;1.02;1.00;;;15.80;85.60;;;;;;5075682;28;20066;-73
2021/07/05 04:15:24;;;;;;;1.35;1.25;;;15.90;85.70;;;;;;5075497;28;20013;-73
2021/07/05 04:17:50;;;;;;;1.10;1.00;;;15.90;85.70;;;;;;5075066;28;20073;-73
2021/07/05 04:20:18;;;;;;;3.03;1.20;;;15.90;85.50;;;;;;5075735;28;20096;-74
2021/07/05 04:22:45;;;;;;;1.92;1.02;;;15.90;85.30;;;;;;5075554;28;20025;-75
2021/07/05 04:25:12;;;;;;;3.40;1.38;;;15.90;85.30;;;;;;5075452;28;20017;-74
2021/07/05 04:27:39;;;;;;;1.95;1.20;;;16.00;85.30;;;;;;5075282;28;20020;-74
2021/07/05 04:30:07;;;;;;;4.60;1.67;;;16.00;85.00;;;;;;5075307;28;20037;-73
2021/07/05 04:32:36;;;;;;;1.85;1.30;;;16.00;84.90;;;;;;5075284;28;20025;-73
2021/07/05 04:35:07;;;;;;;1.88;1.05;;;16.00;85.00;;;;;;5075328;28;20021;-73
2021/07/05 04:37:32;;;;;;;5.13;1.40;;;16.00;84.90;;;;;;5075154;28;20051;-73
2021/07/05 04:39:58;;;;;;;2.40;1.08;;;16.00;84.80;;;;;;5075173;28;20056;-72
2021/07/05 04:42:24;;;;;;;3.85;1.40;;;16.00;85.10;;;;;;5075035;28;20052;-74
2021/07/05 04:44:51;;;;;;;2.45;1.38;;;16.00;85.00;;;;;;5075083;28;20074;-74
2021/07/05 04:47:16;;;;;;;2.28;1.13;;;16.00;85.10;;;;;;5074834;28;20055;-74
2021/07/05 04:49:42;;;;;;;3.67;1.40;;;16.00;85.00;;;;;;5075014;28;20036;-74
2021/07/05 04:52:08;;;;;;;0.80;0.80;;;16.00;85.00;;;;;;5074808;28;20071;-74
2021/07/05 04:54:33;;;;;;;1.77;1.20;;;16.10;85.00;;;;;;5073511;28;20086;-73
2021/07/05 04:56:59;;;;;;;1.00;0.80;;;16.10;84.90;;;;;;5074765;28;20044;-74
2021/07/05 04:59:25;;;;;;;2.33;1.10;;;16.10;84.90;;;;;;5074800;28;20469;-74
2021/07/05 05:01:51;;;;;;;0.88;0.88;;;16.20;84.80;;;;;;5074812;28;20426;-74
2021/07/05 05:04:17;;;;;;;0.98;0.77;;;16.20;84.30;;;;;;5074797;28;20025;-76
2021/07/05 05:06:43;;;;;;;1.42;0.90;;;16.30;84.10;;;;;;5074581;28;20389;-75
2021/07/05 05:09:09;;;;;;;1.48;1.17;;;16.30;83.90;;;;;;5074284;28;20029;-75
2021/07/05 05:11:35;;;;;;;2.17;1.00;;;16.40;83.50;;;;;;5074461;28;20028;-76
2021/07/05 05:14:01;;;;;;;1.90;1.05;;;16.40;83.00;;;;;;5074382;28;20040;-75
2021/07/05 05:16:26;;;;;;;4.38;0.95;;;16.40;82.50;;;;;;5074499;28;20427;-76
2021/07/05 05:18:52;;;;;;;0.90;0.90;;;16.40;82.70;;;;;;5074355;28;20028;-75
2021/07/05 05:21:18;;;;;;;1.77;1.10;;;16.40;82.70;;;;;;5074039;28;20456;-73
2021/07/05 05:23:44;;;;;;;2.45;0.88;;;16.40;82.40;;;;;;5074130;28;20025;-73
2021/07/05 05:26:09;;;;;;;3.65;1.23;;;16.40;82.50;;;;;;5073920;28;20021;-74
2021/07/05 05:28:35;;;;;;;3.08;1.05;;;16.40;82.70;;;;;;5072662;28;20413;-74
2021/07/05 05:31:02;;;;;;;1.83;1.25;;;16.30;82.80;;;;;;5074029;28;20051;-74
2021/07/05 05:33:27;;;;;;;2.58;0.98;;;16.30;83.70;;;;;;5073769;28;20028;-74
2021/07/05 05:35:53;;;;;;;1.83;0.90;;;16.30;84.10;;;;;;5073509;28;20043;-74
2021/07/05 05:38:18;;;;;;;3.15;0.95;;;16.30;84.20;;;;;;5073224;28;20035;-73
2021/07/05 05:40:44;;;;;;;1.35;1.20;;;16.40;84.10;;;;;;5072531;28;20024;-73
2021/07/05 05:43:10;;;;;;;1.92;1.10;;;16.40;83.80;;;;;;5073593;28;20027;-74
2021/07/05 05:45:37;;;;;;;1.17;1.08;;;16.40;83.80;;;;;;5073665;28;20039;-74
2021/07/05 05:48:02;;;;;;;0.82;0.80;;;16.40;84.10;;;;;;5073482;28;20040;-74
2021/07/05 05:50:28;;;;;;;2.45;0.98;;;16.50;83.90;;;;;;5073443;28;20048;-75
2021/07/05 05:52:54;;;;;;;1.23;0.90;;;16.50;84.00;;;;;;5072201;28;20028;-74
2021/07/05 05:55:19;;;;;;;1.50;1.40;;;16.60;83.50;;;;;;5073573;28;20036;-73
2021/07/05 05:57:45;;;;;;;1.42;0.93;;;16.50;83.20;;;;;;5073404;28;20029;-74
2021/07/05 06:00:18;;;;;;;2.67;1.08;;;16.50;83.30;;;;;;5073666;28;20025;-74
2021/07/05 06:02:45;;;;;;;1.80;1.10;;;16.50;83.30;;;;;;5073434;28;20021;-74
2021/07/05 06:05:10;;;;;;;1.17;1.00;;;16.50;83.60;;;;;;5073204;28;20031;-74
2021/07/05 06:07:37;;;;;;;1.55;0.93;;;16.50;83.10;;;;;;5073179;28;20365;-74
2021/07/05 06:10:04;;;;;;;2.40;1.10;;;16.60;83.20;;;;;;5072906;28;20123;-74
2021/07/05 06:12:30;;;;;;;1.67;1.10;;;16.60;83.90;;;;;;5073175;28;20099;-74
2021/07/05 06:14:55;;;;;;;1.23;1.10;;;16.60;84.10;;;;;;5072897;28;20060;-75
2021/07/05 06:17:22;;;;;;;1.58;0.90;;;16.70;83.40;;;;;;5072783;28;20096;-75
2021/07/05 06:19:48;;;;;;;1.80;1.20;;;16.70;83.40;;;;;;5073040;28;20031;-74
2021/07/05 06:22:21;;;;;;;0.90;0.90;;;16.80;83.50;;;;;;5072748;28;20025;-74
2021/07/05 06:24:47;;;;;;;1.33;1.17;;;16.80;83.50;;;;;;5072902;28;20038;-74
2021/07/05 06:27:14;;;;;;;1.23;0.90;;;16.80;83.80;;;;;;5072783;28;20024;-74
2021/07/05 06:29:39;;;;;;;2.75;0.95;;;16.80;82.00;;;;;;5072686;28;20037;-75
2021/07/05 06:32:05;;;;;;;4.03;1.40;;;16.80;82.50;;;;;;5072659;28;20454;-74
2021/07/05 06:34:31;;;;;;;2.58;1.38;;;16.80;83.80;;;;;;5071567;28;20024;-74
2021/07/05 06:36:56;;;;;;;1.40;1.30;;;16.70;84.60;;;;;;5072984;28;20024;-74
2021/07/05 06:39:22;;;;;;;1.50;1.23;;;16.70;84.40;;;;;;5072163;28;20083;-74
2021/07/05 06:41:48;;;;;;;1.65;1.00;;;16.70;84.30;;;;;;5052696;28;20069;-74
2021/07/05 06:44:13;;;;;;;1.23;1.00;;;16.70;84.20;;;;;;5052815;28;20025;-73
2021/07/05 06:46:39;;;;;;;3.70;1.55;;;16.70;84.00;;;;;;5067395;28;20024;-75
2021/07/05 06:49:05;;;;;;;1.35;0.90;;;16.80;83.70;;;;;;5071695;28;20370;-74
2021/07/05 06:51:31;;;;;;;2.15;1.15;;;16.80;82.90;;;;;;5072670;28;20131;-74
2021/07/05 06:53:57;;;;;;;1.48;0.90;;;16.90;83.10;;;;;;5072730;28;20079;-74
2021/07/05 06:56:22;;;;;;;1.30;1.05;;;16.90;83.30;;;;;;5072813;28;20020;-74
2021/07/05 06:58:48;;;;;;;1.55;1.20;;;17.00;83.80;;;;;;5073011;28;20021;-74
2021/07/05 07:01:13;;;;;;;1.85;1.20;;;17.10;83.10;;;;;;5076287;28;20426;-75
2021/07/05 07:03:39;;;;;;;2.33;1.42;;;17.10;83.00;;;;;;5078074;28;20028;-76
2021/07/05 07:06:05;;;;;;;1.95;1.08;;;17.20;82.90;;;;;;5076724;28;20041;-76
2021/07/05 07:08:30;;;;;;;1.58;0.90;;;17.30;82.90;;;;;;5072458;28;20035;-77
2021/07/05 07:10:56;;;;;;;2.17;1.02;;;17.30;82.60;;;;;;5072896;28;20028;-78
2021/07/05 07:13:22;;;;;;;1.10;0.90;;;17.30;82.90;;;;;;5072736;28;20027;-76
2021/07/05 07:15:53;;;;;;;1.38;1.00;;;17.40;82.20;;;;;;5072489;28;20029;-76
2021/07/05 07:20:48;;;;;;;2.15;0.90;;;17.50;81.80;;;;;;5072590;28;20033;-75
2021/07/05 07:23:13;;;;;;;1.42;1.10;;;17.50;81.40;;;;;;5072441;28;20024;-76
2021/07/05 07:25:39;;;;;;;1.48;1.00;;;17.50;81.40;;;;;;5072345;28;20081;-73
2021/07/05 07:28:04;;;;;;;2.50;1.05;;;17.60;81.10;;;;;;5072075;28;20028;-75
2021/07/05 07:30:30;;;;;;;9.30;1.42;;;17.60;80.90;;;;;;5072392;28;20028;-74
2021/07/05 07:32:56;;;;;;;3.45;0.80;;;17.50;79.80;;;;;;5072482;28;20033;-76
2021/07/05 07:35:22;;;;;;;1.30;0.88;;;17.40;79.30;;;;;;5072208;28;20089;-76
2021/07/05 07:37:49;;;;;;;2.60;0.70;;;17.30;82.00;;;;;;5072399;28;20024;-76
2021/07/05 07:40:19;;;;;;;0.80;0.70;;;17.20;81.90;;;;;;5072174;28;20032;-72
2021/07/05 07:42:45;;;;;;;5.80;0.73;;;17.20;81.20;;;;;;5072251;28;20020;-75
2021/07/05 07:45:11;;;;;;;0.68;0.60;;;17.40;81.30;;;;;;5072087;28;20070;-73
2021/07/05 07:47:37;;;;;;;1.30;0.50;;;17.50;80.10;;;;;;5072081;28;20032;-74
2021/07/05 07:50:05;;;;;;;7.22;1.30;;;17.60;79.80;;;;;;5072185;28;20048;-73
2021/07/05 07:52:31;;;;;;;4.03;1.30;;;17.80;80.70;;;;;;5074725;28;20037;-78
2021/07/05 07:54:58;;;;;;;2.80;0.82;;;18.10;79.90;;;;;;5075650;28;20020;-74
2021/07/05 07:57:23;;;;;;;2.38;0.80;;;18.20;79.20;;;;;;5075893;28;20017;-73
2021/07/05 07:59:49;;;;;;;2.17;0.70;;;18.50;78.50;;;;;;5074344;28;20585;-76
2021/07/05 08:02:15;;;;;;;1.13;0.65;;;18.70;77.20;;;;;;5075732;28;20408;-77
2021/07/05 08:04:41;;;;;;;2.63;0.75;;;18.90;76.20;;;;;;5075688;28;20481;-77
2021/07/05 08:07:07;;;;;;;1.23;0.55;;;19.10;75.70;;;;;;5081784;28;20103;-80
2021/07/05 08:09:34;;;;;;;1.10;0.40;;;19.20;74.20;;;;;;5076649;28;20036;-78
2021/07/05 08:12:01;;;;;;;0.40;0.30;;;19.20;72.00;;;;;;5074747;28;20027;-79
2021/07/05 08:14:26;;;;;;;0.45;0.40;;;19.10;71.60;;;;;;5075612;28;20028;-79
2021/07/05 08:16:53;;;;;;;1.23;0.52;;;18.90;73.90;;;;;;5075513;28;20021;-81
2021/07/05 08:19:19;;;;;;;1.55;0.43;;;19.00;74.20;;;;;;5075585;28;20029;-81
2021/07/05 08:21:45;;;;;;;0.50;0.50;;;19.20;74.00;;;;;;5075527;28;20013;-80
2021/07/05 08:24:12;;;;;;;0.68;0.55;;;19.40;74.00;;;;;;5075202;28;20032;-81
2021/07/05 08:26:38;;;;;;;1.10;0.60;;;19.70;73.60;;;;;;5075236;28;20135;-81
2021/07/05 08:29:04;;;;;;;1.05;0.57;;;19.80;72.90;;;;;;5075255;28;20024;-80
2021/07/05 08:31:30;;;;;;;0.63;0.50;;;20.00;72.20;;;;;;5075309;28;20031;-82
2021/07/05 08:33:56;;;;;;;1.30;0.50;;;20.20;71.60;;;;;;5075354;28;20473;-82
2021/07/05 08:36:22;;;;;;;1.65;0.70;;;20.20;71.20;;;;;;5075162;28;20017;-80
2021/07/05 08:38:48;;;;;;;1.17;0.80;;;20.30;71.20;;;;;;5075267;28;20024;-81
2021/07/05 08:41:14;;;;;;;1.90;0.70;;;20.30;70.90;;;;;;5075078;28;20024;-82
2021/07/05 08:43:45;;;;;;;0.60;0.60;;;20.20;70.80;;;;;;5075067;28;20028;-82
2021/07/05 08:46:13;;;;;;;3.38;0.70;;;20.00;69.10;;;;;;5074835;28;20024;-81
2021/07/05 08:48:41;;;;;;;2.90;1.25;;;19.80;69.40;;;;;;5074584;28;20060;-78
2021/07/05 08:51:10;;;;;;;0.95;0.55;;;19.80;70.40;;;;;;5074796;28;20112;-80
2021/07/05 08:53:37;;;;;;;1.25;0.50;;;19.70;70.10;;;;;;5074899;28;20032;-79
2021/07/05 08:56:03;;;;;;;1.10;0.98;;;19.70;70.70;;;;;;5073422;28;20392;-81
2021/07/05 08:58:29;;;;;;;2.95;0.77;;;19.90;71.10;;;;;;5074307;28;20024;-81
2021/07/05 09:00:54;;;;;;;0.70;0.65;;;20.20;70.40;;;;;;5074785;28;20024;-79
2021/07/05 09:03:29;;;;;;;0.95;0.75;;;20.50;69.30;;;;;;5074112;28;20536;-81
2021/07/05 09:06:11;;;;;;;0.93;0.60;;;20.90;68.00;;;;;;5074672;28;20130;-81
2021/07/05 09:08:38;;;;;;;0.77;0.60;;;20.90;64.80;;;;;;5074569;28;20032;-80
2021/07/05 09:11:08;;;;;;;1.38;0.73;;;20.50;66.50;;;;;;5074503;28;20399;-78
2021/07/05 09:13:48;;;;;;;1.25;0.70;;;20.10;69.60;;;;;;5074633;28;20029;-76
2021/07/05 09:16:31;;;;;;;1.33;0.80;;;19.80;68.00;;;;;;5074093;28;20024;-74
2021/07/05 09:18:57;;;;;;;1.85;0.60;;;19.60;71.40;;;;;;5074111;28;20031;-76
2021/07/05 09:21:32;;;;;;;1.63;0.75;;;19.50;70.70;;;;;;5073936;28;20097;-75
2021/07/05 09:24:03;;;;;;;2.65;1.10;;;19.60;69.90;;;;;;5074134;28;20027;-74
2021/07/05 09:26:41;;;;;;;2.50;0.90;;;19.40;70.10;;;;;;5072316;28;20028;-74
2021/07/05 09:29:27;;;;;;;1.75;0.85;;;19.30;69.70;;;;;;5073719;28;20519;-73
2021/07/05 09:31:54;;;;;;;;;;;19.30;69.00;;;;;;5073996;28;20036;-73
2021/07/05 09:34:35;;;;;;;1.50;0.90;;;19.40;70.80;;;;;;5073706;28;19966;-77
2021/07/05 09:37:20;;;;;;;2.13;0.70;;;19.20;70.90;;;;;;5073960;28;20020;-72
2021/07/05 09:40:02;;;;;;;1.10;0.75;;;19.20;71.90;;;;;;5073684;28;20493;-73
2021/07/05 09:42:32;;;;;;;2.50;0.63;;;19.30;70.60;;;;;;5072324;28;20036;-72
2021/07/05 09:44:59;;;;;;;4.60;0.90;;;19.30;69.10;;;;;;5073293;28;20430;-71
2021/07/05 09:47:26;;;;;;;5.22;1.10;;;19.30;71.40;;;;;;5073121;28;20048;-73
2021/07/05 09:49:55;;;;;;;5.20;0.90;;;19.20;70.30;;;;;;5073528;28;20119;-72
2021/07/05 09:52:27;;;;;;;3.58;1.00;;;19.20;72.00;;;;;;5073292;28;20100;-72
2021/07/05 09:54:55;;;;;;;1.27;0.90;;;19.20;70.30;;;;;;5073281;28;20017;-72
2021/07/05 09:57:30;;;;;;;2.17;1.00;;;19.30;69.50;;;;;;5073230;28;20025;-73
2021/07/05 10:00:07;;;;;;;5.50;0.80;;;19.30;70.50;;;;;;5073410;28;20058;-72
2021/07/05 10:02:33;;;;;;;1.73;1.00;;;19.40;69.90;;;;;;5073219;28;20029;-73
2021/07/05 10:05:17;;;;;;;1.77;0.85;;;19.30;70.30;;;;;;5072822;28;20021;-72
2021/07/05 10:07:43;;;;;;;1.38;0.82;;;19.40;70.20;;;;;;5072869;28;20024;-73
2021/07/05 10:10:10;;;;;;;5.68;1.33;;;19.60;69.90;;;;;;5073045;28;20489;-73
2021/07/05 10:12:36;;;;;;;2.10;1.10;;;19.70;69.90;;;;;;5073281;28;20025;-74
2021/07/05 10:15:11;;;;;;;1.15;0.73;;;19.80;69.90;;;;;;5072344;28;20021;-73
2021/07/05 10:17:39;;;;;;;1.58;0.80;;;20.00;67.60;;;;;;5072329;28;20415;-73
2021/07/05 10:20:11;;;;;;;3.97;0.93;;;19.90;67.60;;;;;;5072311;28;20035;-74
2021/07/05 10:22:42;;;;;;;2.17;0.90;;;19.90;68.60;;;;;;5072685;28;20337;-74
2021/07/05 10:25:08;;;;;;;4.72;1.05;;;20.00;68.90;;;;;;5072107;28;20189;-73
2021/07/05 10:27:34;;;;;;;2.50;0.70;;;20.00;68.10;;;;;;5070803;28;20081;-74
2021/07/05 10:30:03;;;;;;;3.67;1.00;;;19.90;69.30;;;;;;5072534;28;20040;-75
2021/07/05 10:32:30;;;;;;;6.10;0.80;;;20.00;69.90;;;;;;5072308;28;20024;-75
2021/07/05 10:34:57;;;;;;;2.38;0.77;;;20.00;66.80;;;;;;5072650;28;20029;-73
2021/07/05 10:37:47;;;;;;;0.93;0.70;;;19.90;68.40;;;;;;5072472;28;20028;-76
2021/07/05 10:40:14;;;;;;;1.00;0.80;;;19.90;67.40;;;;;;5072527;28;20025;-76
2021/07/05 10:42:43;;;;;;;2.92;0.93;;;19.90;68.70;;;;;;5072584;28;20469;-74
2021/07/05 10:45:17;;;;;;;0.60;0.60;;;19.90;68.60;;;;;;5072108;28;20136;-75
2021/07/05 10:47:54;;;;;;;2.65;0.80;;;19.80;68.00;;;;;;5072001;28;20082;-75
2021/07/05 10:50:41;;;;;;;1.13;0.68;;;19.70;69.00;;;;;;5071662;28;20048;-74
2021/07/05 10:53:07;;;;;;;2.88;0.90;;;19.70;68.60;;;;;;5072050;28;20058;-75
2021/07/05 10:55:42;;;;;;;2.33;0.88;;;19.60;69.10;;;;;;5072049;28;20053;-74
2021/07/05 10:58:29;;;;;;;1.50;0.60;;;19.50;70.00;;;;;;5072540;28;20021;-75
2021/07/05 11:00:57;;;;;;;0.60;0.60;;;19.60;69.50;;;;;;5072381;28;20017;-74
2021/07/05 11:03:38;;;;;;;1.38;0.70;;;19.80;68.90;;;;;;5072141;28;20084;-75
2021/07/05 11:06:28;;;;;;;3.63;0.60;;;19.90;68.70;;;;;;5071182;28;20400;-75
2021/07/05 11:08:54;;;;;;;0.80;0.80;;;20.10;67.70;;;;;;5072198;28;20025;-75
2021/07/05 11:11:33;;;;;;;9.07;0.77;;;20.20;66.20;;;;;;5072487;28;20024;-74
2021/07/05 11:14:33;;;;;;;0.90;0.50;;;20.40;67.10;;;;;;5072372;28;20017;-75
2021/07/05 11:17:01;;;;;;;1.38;0.65;;;20.40;65.60;;;;;;5072472;28;20021;-74
2021/07/05 11:19:43;;;;;;;1.35;0.60;;;20.20;66.90;;;;;;5072504;28;20063;-75
2021/07/05 11:22:18;;;;;;;1.95;0.50;;;20.10;67.40;;;;;;5072439;28;20108;-75
2021/07/05 11:24:51;;;;;;;5.15;0.80;;;19.90;67.90;;;;;;5072286;28;20024;-74
2021/07/05 11:27:30;;;;;;;4.13;0.70;;;19.60;69.30;;;;;;5076419;28;20035;-74
2021/07/05 11:30:14;;;;;;;4.78;1.10;;;19.50;70.20;;;;;;5076237;28;20384;-74
2021/07/05 11:32:43;;;;;;;0.80;0.60;;;19.50;70.20;;;;;;5076313;28;20491;-73
2021/07/05 11:35:27;;;;;;;2.20;0.50;;;19.60;70.30;;;;;;5075990;28;20523;-73
2021/07/05 11:38:02;;;;;;;1.67;0.98;;;19.60;69.60;;;;;;5075852;28;20244;-73
2021/07/05 11:40:48;;;;;;;2.00;0.70;;;19.60;70.40;;;;;;5076267;28;20028;-73
2021/07/05 11:43:16;;;;;;;0.80;0.80;;;19.70;69.50;;;;;;5076290;28;20537;-73
2021/07/05 11:45:48;;;;;;;1.40;0.60;;;19.60;69.50;;;;;;5076131;28;20085;-72
2021/07/05 11:48:39;;;;;;;2.40;0.50;;;19.60;69.70;;;;;;5075927;28;20108;-72
2021/07/05 11:51:15;;;;;;;2.28;0.60;;;19.60;68.80;;;;;;5073165;28;20489;-72
2021/07/05 11:53:40;;;;;;;0.93;0.45;;;19.60;68.20;;;;;;5076575;28;20028;-72
2021/07/05 11:56:06;;;;;;;0.75;0.50;;;19.60;67.70;;;;;;5075967;28;20382;-73
2021/07/05 11:58:32;;;;;;;4.45;0.70;;;19.50;66.40;;;;;;5075858;28;20047;-73
2021/07/05 12:01:11;;;;;;;0.50;0.50;;;19.60;66.40;;;;;;5080433;28;20027;-73
2021/07/05 12:03:52;;;;;;;0.60;0.35;;;19.60;64.40;;;;;;5076272;28;20453;-73
2021/07/05 12:06:17;;;;;;;2.47;0.50;;;19.70;65.50;;;;;;5084089;28;20023;-72
2021/07/05 12:08:51;;;;;;;1.13;0.43;;;19.90;64.60;;;;;;5079067;28;20377;-72
2021/07/05 12:11:37;;;;;;;1.33;0.57;;;20.00;63.80;;;;;;5079330;28;20054;-72
2021/07/05 12:14:16;;;;;;;0.52;0.40;;;20.00;61.80;;;;;;5078477;28;20078;-72
2021/07/05 12:16:51;;;;;;;0.50;0.50;;;20.10;63.70;;;;;;5077749;28;20031;-72
2021/07/05 12:19:16;;;;;;;0.60;0.30;;;20.20;62.40;;;;;;5076372;28;20044;-72
2021/07/05 12:21:49;;;;;;;2.13;0.40;;;20.20;61.90;;;;;;5075818;28;20476;-72
2021/07/05 12:24:41;;;;;;;7.75;0.85;;;19.80;63.60;;;;;;5074587;28;20178;-72
2021/07/05 12:27:10;;;;;;;2.38;0.50;;;19.90;65.10;;;;;;5076089;28;20063;-73
2021/07/05 12:29:43;;;;;;;1.35;0.70;;;20.10;64.00;;;;;;5075963;28;20055;-73
2021/07/05 12:32:13;;;;;;;1.75;0.40;;;20.20;63.60;;;;;;5076126;28;20024;-73
2021/07/05 12:34:47;;;;;;;0.82;0.40;;;20.30;62.50;;;;;;5078301;28;20080;-74
2021/07/05 12:37:20;;;;;;;2.42;0.50;;;20.30;61.80;;;;;;5080681;28;20024;-73
2021/07/05 12:39:49;;;;;;;4.80;0.90;;;20.40;62.50;;;;;;5081165;28;20135;-75
2021/07/05 12:42:25;;;;;;;3.67;0.93;;;20.70;61.80;;;;;;5077839;28;20024;-72
2021/07/05 12:44:51;;;;;;;0.90;0.50;;;21.40;60.80;;;;;;5075629;28;20027;-73
2021/07/05 12:47:17;;;;;;;2.75;0.80;;;21.80;59.20;;;;;;5075360;28;20107;-73
2021/07/05 12:49:42;;;;;;;2.38;0.52;;;22.10;57.20;;;;;;5075077;28;20120;-74
2021/07/05 12:52:09;;;;;;;3.28;0.50;;;22.50;56.80;;;;;;5075076;28;20048;-73
2021/07/05 12:54:38;;;;;;;1.38;0.50;;;22.60;56.20;;;;;;5075734;28;20029;-72
2021/07/05 12:57:18;;;;;;;1.27;0.40;;;22.60;55.80;;;;;;5074477;28;20051;-74